OIFK  Kashan Airport

Add Bookmark

Iran

Status
Operational
Latitude Longitude
33° 53' 43" N 51° 34' 37" E
33.895302 51.577000
Local (DST + 5) UTC (GMT + 4)
Sep 23, 2014 01:51 Sep 23, 2014 10:21
Sunrise-Sunset Local UTC
Begin Civil Twilight 05:26 01:56
Sunrise 05:51 02:21
Sunset 06:00 14:30
End Civil Twilight 06:25 14:55

Current Weather

METAR Observed VFR
OIFK 231000Z 36008KT CAVOK 34/07 Q1012 Tue, Sep 23, 2014 @ 10:00 UTC
(21 Minutes ago)
Visual Flight Rules
Wind Visibility Clouds Conditions
360° at 8 knots (15 kph) 10 km or more
  • Clear skies
  • No significant weather
Temperatures Readings Precipitation
Current Temp 34°C (93°F)
Dewpoint 7°C (45°F)
Humidity 19%
Altimeter 29.88"Hg
Sea Level Pressure 1012mb
Field Elevation 3221.78'
None Recorded

Additional weather within a 185.2km radius of OIFK

Map ICAO Location
OIFM 129.8km S (168°)
OIHR 161.5km W (280°)
OIIE 173.3km N (347°)

24 Hour Weather History

Loading
-

24 Hour Weather Graphs

Loading
-

CheckWX.com is intended as a tool to help pilots better visualize weather data. It is not intended as a substitute for an official weather briefing obtained from a Flight Service Station. CheckWX.com does not meet the FAA requirements for an official pre-flight weather briefing. Therefore, it's important that pilots still call and obtain an official FSS pre-flight weather briefing.